createdAt,value
2023-02-19T00:02:13.628Z,1.70
2023-02-19T00:04:40.935Z,2.10
2023-02-19T00:07:08.003Z,0.93
2023-02-19T00:09:35.363Z,0.80
2023-02-19T00:12:02.290Z,1.92
2023-02-19T00:14:29.516Z,2.00
2023-02-19T00:16:56.425Z,1.08
2023-02-19T00:19:23.829Z,0.80
2023-02-19T00:21:52.997Z,1.00
2023-02-19T00:24:21.290Z,1.00
2023-02-19T00:26:49.207Z,1.20
2023-02-19T00:29:21.036Z,2.30
2023-02-19T00:31:48.802Z,1.45
2023-02-19T00:34:16.426Z,1.23
2023-02-19T00:36:44.221Z,3.42
2023-02-19T00:39:16.148Z,2.55
2023-02-19T00:41:44.693Z,1.88
2023-02-19T00:44:13.460Z,2.10
2023-02-19T00:46:46.722Z,3.30
2023-02-19T00:49:19.892Z,3.90
2023-02-19T00:51:47.496Z,2.30
2023-02-19T00:54:16.019Z,2.53
2023-02-19T00:56:43.337Z,3.72
2023-02-19T00:59:11.480Z,2.67
2023-02-19T01:01:38.865Z,3.35
2023-02-19T01:04:07.019Z,3.40
2023-02-19T01:06:35.361Z,2.10
2023-02-19T01:09:04.814Z,2.47
2023-02-19T01:11:31.868Z,1.90
2023-02-19T01:14:00.839Z,1.88
2023-02-19T01:16:28.640Z,3.00
2023-02-19T01:18:58.252Z,1.85
2023-02-19T01:21:27.664Z,2.30
2023-02-19T01:23:56.673Z,1.77
2023-02-19T01:26:31.674Z,1.75
2023-02-19T01:29:02.720Z,1.67
2023-02-19T01:31:30.569Z,3.55
2023-02-19T01:34:01.210Z,1.80
2023-02-19T01:36:30.228Z,1.70
2023-02-19T01:39:03.793Z,1.70
2023-02-19T01:41:32.336Z,2.08
2023-02-19T01:44:12.269Z,1.80
2023-02-19T01:46:42.318Z,2.13
2023-02-19T01:49:21.220Z,1.92
2023-02-19T01:51:58.409Z,1.65
2023-02-19T01:54:31.138Z,3.60
2023-02-19T01:57:02.349Z,2.17
2023-02-19T01:59:31.431Z,3.90
2023-02-19T02:02:00.825Z,1.77
2023-02-19T02:04:31.871Z,2.40
2023-02-19T02:07:03.345Z,4.03
2023-02-19T02:09:50.139Z,2.45
2023-02-19T02:12:17.316Z,2.25
2023-02-19T02:14:48.234Z,2.58
2023-02-19T02:17:31.464Z,2.42
2023-02-19T02:20:44.794Z,2.20
2023-02-19T02:23:49.182Z,1.92
2023-02-19T02:26:31.298Z,1.80
2023-02-19T02:29:43.441Z,1.90
2023-02-19T02:32:30.508Z,1.70
2023-02-19T02:35:10.116Z,2.17
2023-02-19T02:37:42.333Z,4.00
2023-02-19T02:40:12.364Z,2.47
2023-02-19T02:42:41.002Z,2.05
2023-02-19T02:45:34.962Z,2.95
2023-02-19T02:48:09.234Z,2.75
2023-02-19T02:50:58.516Z,2.47
2023-02-19T02:54:16.038Z,2.42
2023-02-19T02:56:46.675Z,2.58
2023-02-19T02:59:20.171Z,2.20
2023-02-19T03:02:14.262Z,2.53
2023-02-19T03:05:25.776Z,2.42
2023-02-19T03:08:05.381Z,2.47
2023-02-19T03:10:45.960Z,3.10
2023-02-19T03:13:40.910Z,2.20
2023-02-19T03:16:53.226Z,2.85
2023-02-19T03:19:25.574Z,2.80
2023-02-19T03:22:09.976Z,3.50
2023-02-19T03:25:09.781Z,4.80
2023-02-19T03:27:41.137Z,3.03
2023-02-19T03:30:24.337Z,3.63
2023-02-19T03:33:08.344Z,3.05
2023-02-19T03:35:47.149Z,2.92
2023-02-19T03:38:38.113Z,3.22
2023-02-19T03:41:23.444Z,3.10
2023-02-19T03:44:04.426Z,3.25
2023-02-19T03:47:07.767Z,2.97
2023-02-19T03:49:49.804Z,2.95
2023-02-19T03:52:49.552Z,6.15
2023-02-19T03:55:45.366Z,2.72
2023-02-19T03:58:24.591Z,2.90
2023-02-19T04:01:34.045Z,3.55
2023-02-19T04:04:32.427Z,3.17
2023-02-19T04:07:00.347Z,3.35
2023-02-19T04:09:38.319Z,3.03
2023-02-19T04:12:07.881Z,3.30
2023-02-19T04:15:20.719Z,2.72
2023-02-19T04:18:03.207Z,5.82
2023-02-19T04:20:37.492Z,2.70
2023-02-19T04:23:05.511Z,2.65
2023-02-19T04:25:35.953Z,2.92
2023-02-19T04:28:03.545Z,3.63
2023-02-19T04:30:30.609Z,2.67
2023-02-19T04:32:57.969Z,2.80
2023-02-19T04:35:24.892Z,2.55
2023-02-19T04:37:52.156Z,2.60
2023-02-19T04:40:19.669Z,3.17
2023-02-19T04:42:46.845Z,2.67
2023-02-19T04:45:13.896Z,2.67
2023-02-19T04:47:41.097Z,2.92
2023-02-19T04:50:08.403Z,2.42
2023-02-19T04:52:35.777Z,2.75
2023-02-19T04:55:02.876Z,2.47
2023-02-19T04:57:30.450Z,2.60
2023-02-19T04:59:57.574Z,2.70
2023-02-19T05:02:24.711Z,2.67
2023-02-19T05:04:51.772Z,2.65
2023-02-19T05:07:19.044Z,2.92
2023-02-19T05:09:46.006Z,3.40
2023-02-19T05:12:13.218Z,3.08
2023-02-19T05:14:40.113Z,2.85
2023-02-19T05:17:07.369Z,3.03
2023-02-19T05:19:34.639Z,3.17
2023-02-19T05:22:01.872Z,3.15
2023-02-19T05:24:29.957Z,3.00
2023-02-19T05:26:57.326Z,2.90
2023-02-19T05:29:24.541Z,2.97
2023-02-19T05:31:52.041Z,3.13
2023-02-19T05:34:19.051Z,3.25
2023-02-19T05:36:46.351Z,3.85
2023-02-19T05:39:13.511Z,3.78
2023-02-19T05:41:41.281Z,3.08
2023-02-19T05:44:11.439Z,2.90
2023-02-19T05:46:38.953Z,3.20
2023-02-19T05:49:06.129Z,3.40
2023-02-19T05:51:33.461Z,3.10
2023-02-19T05:54:00.445Z,2.97
2023-02-19T05:56:39.749Z,2.97
2023-02-19T05:59:27.521Z,3.65
2023-02-19T06:01:55.717Z,2.85
2023-02-19T06:04:23.536Z,2.85
2023-02-19T06:06:51.002Z,3.13
2023-02-19T06:09:18.038Z,4.90
2023-02-19T06:11:45.613Z,2.50
2023-02-19T06:14:14.416Z,2.40
2023-02-19T06:16:42.691Z,2.53
2023-02-19T06:19:10.527Z,2.25
2023-02-19T06:21:37.888Z,2.08
2023-02-19T06:24:07.828Z,2.75
2023-02-19T06:26:35.608Z,2.28
2023-02-19T06:29:02.927Z,1.90
2023-02-19T06:31:30.196Z,3.22
2023-02-19T06:33:57.272Z,2.35
2023-02-19T06:36:24.677Z,1.70
2023-02-19T06:38:52.168Z,1.63
2023-02-19T06:41:19.836Z,2.13
2023-02-19T06:43:46.925Z,1.52
2023-02-19T06:46:15.009Z,1.40
2023-02-19T06:48:44.834Z,1.20
2023-02-19T06:51:15.876Z,1.52
2023-02-19T06:53:42.928Z,1.23
2023-02-19T06:56:34.850Z,1.45
2023-02-19T06:59:05.396Z,1.20
2023-02-19T07:01:35.528Z,1.10
2023-02-19T07:04:04.742Z,1.08
2023-02-19T07:06:33.184Z,1.00
2023-02-19T07:09:00.922Z,1.05
2023-02-19T07:11:32.784Z,0.82
2023-02-19T07:14:03.271Z,0.98
2023-02-19T07:16:30.958Z,2.17
2023-02-19T07:19:00.298Z,1.42
2023-02-19T07:21:29.934Z,0.90
2023-02-19T07:23:58.281Z,1.00
2023-02-19T07:26:26.263Z,1.02
2023-02-19T07:28:53.497Z,1.55
2023-02-19T07:31:24.152Z,0.90
2023-02-19T07:33:51.910Z,0.95
2023-02-19T07:36:21.630Z,1.02
2023-02-19T07:38:55.442Z,1.60
2023-02-19T07:41:24.272Z,14.57
2023-02-19T07:43:51.353Z,1.55
2023-02-19T07:46:18.715Z,3.80
2023-02-19T07:48:46.217Z,1.30
2023-02-19T07:51:19.068Z,1.10
2023-02-19T07:53:48.222Z,1.17
2023-02-19T07:56:15.450Z,1.65
2023-02-19T07:58:43.177Z,1.40
2023-02-19T08:01:15.819Z,1.20
2023-02-19T08:03:44.472Z,1.45
2023-02-19T08:06:12.792Z,1.48
2023-02-19T08:08:40.744Z,1.00
2023-02-19T08:11:28.977Z,3.63
2023-02-19T08:13:56.074Z,1.90
2023-02-19T08:16:37.182Z,3.50
2023-02-19T08:19:09.340Z,1.60
2023-02-19T08:21:36.598Z,1.98
2023-02-19T08:24:03.820Z,1.98
2023-02-19T08:26:31.065Z,3.38
2023-02-19T08:28:59.059Z,2.38
2023-02-19T08:31:27.272Z,3.80
2023-02-19T08:33:55.148Z,2.85
2023-02-19T08:36:22.376Z,2.13
2023-02-19T08:38:49.593Z,3.10
2023-02-19T08:41:16.814Z,3.25
2023-02-19T08:43:44.452Z,3.08
2023-02-19T08:46:12.976Z,3.50
2023-02-19T08:48:40.794Z,2.20
2023-02-19T08:51:11.941Z,1.85
2023-02-19T08:53:41.127Z,2.38
2023-02-19T08:56:17.624Z,3.78
2023-02-19T08:58:45.446Z,2.65
2023-02-19T09:01:17.912Z,2.67
2023-02-19T09:03:45.520Z,3.00
2023-02-19T09:06:19.376Z,1.95
2023-02-19T09:08:47.246Z,1.90
2023-02-19T09:11:15.511Z,1.55
2023-02-19T09:13:43.737Z,2.65
2023-02-19T09:16:12.420Z,1.73
2023-02-19T09:18:40.514Z,2.25
2023-02-19T09:21:07.814Z,1.67
2023-02-19T09:23:36.582Z,2.65
2023-02-19T09:26:08.667Z,1.92
2023-02-19T09:28:36.594Z,1.52
2023-02-19T09:31:11.924Z,1.17
2023-02-19T09:33:47.753Z,1.45
2023-02-19T09:36:17.039Z,2.75
2023-02-19T09:38:44.625Z,1.38
2023-02-19T09:41:30.020Z,1.10
2023-02-19T09:44:04.077Z,1.88
2023-02-19T09:46:45.225Z,2.03
2023-02-19T09:49:18.884Z,0.90
2023-02-19T09:51:55.319Z,1.23
2023-02-19T09:54:30.541Z,1.20
2023-02-19T09:57:02.480Z,0.73
2023-02-19T09:59:46.638Z,2.35
2023-02-19T10:02:22.181Z,1.60
2023-02-19T10:04:51.514Z,0.95
2023-02-19T10:07:24.364Z,0.85
2023-02-19T10:10:17.953Z,1.02
2023-02-19T10:12:55.886Z,1.13
2023-02-19T10:15:26.703Z,1.00
2023-02-19T10:17:54.636Z,1.45
2023-02-19T10:20:27.925Z,1.08
2023-02-19T10:23:08.788Z,0.90
2023-02-19T10:25:49.337Z,1.55
2023-02-19T10:28:22.843Z,0.70
2023-02-19T10:30:59.561Z,0.70
2023-02-19T10:33:27.245Z,1.65
2023-02-19T10:36:08.125Z,0.70
2023-02-19T10:38:48.016Z,1.20
2023-02-19T10:41:20.902Z,0.80
2023-02-19T10:44:06.997Z,1.58
2023-02-19T10:46:44.241Z,0.80
2023-02-19T10:49:40.779Z,1.08
2023-02-19T10:52:37.753Z,0.90
2023-02-19T10:55:26.401Z,1.02
2023-02-19T10:57:53.765Z,1.23
2023-02-19T11:00:30.959Z,0.88
2023-02-19T11:03:22.790Z,2.00
2023-02-19T11:06:08.387Z,1.58
2023-02-19T11:11:37.177Z,1.95
2023-02-19T11:14:19.252Z,1.73
2023-02-19T11:17:04.897Z,1.00
2023-02-19T11:22:40.436Z,1.80
2023-02-19T11:25:10.454Z,2.30
2023-02-19T11:28:16.898Z,0.60
2023-02-19T11:33:16.702Z,0.70
2023-02-19T11:35:45.091Z,0.98
2023-02-19T11:38:16.752Z,1.13
2023-02-19T11:41:11.323Z,2.45
2023-02-19T11:44:30.290Z,2.47
2023-02-19T11:48:08.031Z,1.65
2023-02-19T11:51:16.119Z,1.70
2023-02-19T11:54:06.347Z,5.20
2023-02-19T11:56:39.133Z,1.27
2023-02-19T11:59:48.142Z,1.67
2023-02-19T12:03:09.417Z,1.50
2023-02-19T12:06:29.033Z,2.05
2023-02-19T12:09:30.451Z,1.13
2023-02-19T12:12:24.437Z,0.98
2023-02-19T12:15:15.422Z,1.75
2023-02-19T12:18:14.828Z,1.40
2023-02-19T12:21:25.032Z,2.95
2023-02-19T12:24:14.030Z,1.10
2023-02-19T12:27:02.751Z,0.80
2023-02-19T12:30:14.559Z,0.80
2023-02-19T12:33:18.412Z,0.70
2023-02-19T12:36:14.574Z,0.60
2023-02-19T12:39:04.427Z,0.60
2023-02-19T12:41:48.444Z,0.70
2023-02-19T12:44:42.452Z,0.80
2023-02-19T12:47:21.591Z,1.15
2023-02-19T12:50:19.480Z,1.23
2023-02-19T12:52:55.332Z,1.20
2023-02-19T12:55:41.720Z,0.80
2023-02-19T12:58:29.097Z,1.33
2023-02-19T13:00:59.947Z,0.90
2023-02-19T13:03:39.383Z,1.33
2023-02-19T13:06:11.996Z,1.77
2023-02-19T13:09:06.395Z,0.98
2023-02-19T13:11:50.548Z,0.98
2023-02-19T13:14:52.534Z,0.90
2023-02-19T13:17:35.862Z,0.98
2023-02-19T13:20:39.311Z,1.10
2023-02-19T13:23:52.246Z,0.70
2023-02-19T13:27:08.951Z,0.82
2023-02-19T13:30:20.015Z,0.90
2023-02-19T13:33:23.451Z,0.80
2023-02-19T13:36:11.941Z,2.22
2023-02-19T13:38:47.203Z,0.80
2023-02-19T13:41:32.071Z,1.50
2023-02-19T13:44:08.504Z,1.20
2023-02-19T13:46:44.727Z,1.52
2023-02-19T13:49:33.973Z,1.05
2023-02-19T13:52:36.356Z,1.90
2023-02-19T13:55:46.116Z,1.15
2023-02-19T13:58:58.709Z,1.02
2023-02-19T14:01:51.631Z,1.13
2023-02-19T14:04:58.229Z,2.47
2023-02-19T14:09:56.237Z,2.53
2023-02-19T14:12:37.236Z,1.98
2023-02-19T14:15:49.413Z,2.28
2023-02-19T14:18:42.836Z,2.17
2023-02-19T14:21:38.849Z,1.10
2023-02-19T14:26:41.064Z,2.53
2023-02-19T14:29:13.789Z,2.15
2023-02-19T14:31:46.125Z,1.75
2023-02-19T14:34:25.110Z,1.98
2023-02-19T14:37:02.136Z,1.77
2023-02-19T14:39:40.378Z,1.80
2023-02-19T14:42:24.662Z,2.10
2023-02-19T14:45:02.094Z,1.40
2023-02-19T14:47:34.572Z,1.67
2023-02-19T14:50:07.378Z,1.60
2023-02-19T14:52:48.208Z,1.40
2023-02-19T14:55:36.217Z,1.52
2023-02-19T14:58:15.483Z,1.58
2023-02-19T15:00:43.092Z,2.42
2023-02-19T15:03:30.648Z,1.90
2023-02-19T15:06:05.447Z,2.90
2023-02-19T15:11:17.565Z,2.53
2023-02-19T15:13:52.300Z,2.55
2023-02-19T15:16:25.623Z,2.97
2023-02-19T15:18:58.145Z,1.83
2023-02-19T15:21:30.788Z,1.80
2023-02-19T15:24:04.266Z,1.75
2023-02-19T15:26:43.209Z,2.38
2023-02-19T15:29:25.500Z,1.55
2023-02-19T15:32:00.617Z,1.65
2023-02-19T15:34:33.122Z,1.67
2023-02-19T15:37:05.793Z,2.53
2023-02-19T15:39:44.413Z,1.83
2023-02-19T15:42:31.912Z,2.42
2023-02-19T15:45:40.111Z,1.55
2023-02-19T15:48:37.290Z,1.95
2023-02-19T15:51:17.690Z,2.28
2023-02-19T15:53:54.597Z,2.83
2023-02-19T15:56:31.810Z,2.50
2023-02-19T15:59:14.337Z,2.10
2023-02-19T16:01:42.734Z,1.73
2023-02-19T16:04:19.311Z,3.05
2023-02-19T16:07:01.257Z,2.03
2023-02-19T16:09:40.022Z,1.90
2023-02-19T16:12:26.850Z,2.85
2023-02-19T16:14:54.041Z,2.78
2023-02-19T16:17:28.119Z,4.85
2023-02-19T16:20:04.003Z,3.97
2023-02-19T16:22:42.322Z,3.55
2023-02-19T16:25:39.379Z,2.53
2023-02-19T16:28:22.950Z,2.42
2023-02-19T16:31:23.008Z,2.90
2023-02-19T16:33:51.467Z,2.17
2023-02-19T16:36:37.141Z,6.75
2023-02-19T16:39:18.412Z,2.20
2023-02-19T16:41:45.503Z,5.20
2023-02-19T16:44:21.983Z,2.53
2023-02-19T16:47:11.188Z,2.00
2023-02-19T16:49:39.078Z,1.98
2023-02-19T16:52:06.388Z,3.47
2023-02-19T16:54:33.718Z,3.45
2023-02-19T16:57:00.791Z,4.78
2023-02-19T16:59:28.090Z,2.55
2023-02-19T17:01:55.178Z,3.50
2023-02-19T17:04:22.577Z,6.00
2023-02-19T17:06:50.042Z,2.85
2023-02-19T17:09:18.220Z,3.50
2023-02-19T17:11:45.714Z,4.93
2023-02-19T17:14:13.105Z,2.40
2023-02-19T17:16:40.725Z,2.63
2023-02-19T17:19:19.880Z,4.70
2023-02-19T17:21:47.333Z,4.25
2023-02-19T17:24:15.018Z,4.43
2023-02-19T17:26:42.091Z,5.18
2023-02-19T17:29:14.749Z,3.50
2023-02-19T17:31:42.071Z,4.43
2023-02-19T17:34:09.713Z,3.97
2023-02-19T17:36:38.245Z,3.38
2023-02-19T17:39:15.160Z,2.80
2023-02-19T17:41:42.808Z,5.68
2023-02-19T17:44:10.773Z,5.85
2023-02-19T17:46:39.819Z,2.95
2023-02-19T17:49:08.008Z,4.28
2023-02-19T17:51:35.606Z,4.45
2023-02-19T17:54:03.037Z,3.72
2023-02-19T17:56:30.382Z,5.55
2023-02-19T17:58:58.446Z,4.78
2023-02-19T18:01:25.669Z,4.90
2023-02-19T18:03:52.950Z,4.13
2023-02-19T18:06:20.662Z,4.80
2023-02-19T18:08:51.021Z,2.60
2023-02-19T18:11:20.074Z,3.00
2023-02-19T18:13:49.372Z,4.28
2023-02-19T18:16:17.295Z,6.10
2023-02-19T18:18:45.614Z,3.30
2023-02-19T18:21:14.171Z,4.30
2023-02-19T18:23:41.920Z,3.22
2023-02-19T18:26:11.316Z,3.22
2023-02-19T18:28:40.556Z,2.45
2023-02-19T18:31:08.137Z,5.82
2023-02-19T18:33:36.004Z,2.63
2023-02-19T18:36:04.407Z,4.50
2023-02-19T18:38:31.697Z,3.35
2023-02-19T18:40:58.983Z,3.50
2023-02-19T18:43:26.629Z,7.85
2023-02-19T18:45:54.288Z,5.95
2023-02-19T18:48:22.053Z,5.78
2023-02-19T18:50:49.220Z,4.88
2023-02-19T18:53:16.777Z,3.55
2023-02-19T18:55:44.189Z,3.45
2023-02-19T18:58:11.459Z,5.00
2023-02-19T19:00:38.786Z,4.60
2023-02-19T19:03:06.528Z,6.53
2023-02-19T19:05:34.336Z,6.22
2023-02-19T19:08:02.017Z,4.25
2023-02-19T19:10:30.506Z,4.97
2023-02-19T19:12:58.723Z,3.05
2023-02-19T19:15:26.460Z,5.05
2023-02-19T19:17:53.880Z,5.03
2023-02-19T19:20:23.588Z,6.07
2023-02-19T19:22:53.142Z,4.10
2023-02-19T19:25:22.969Z,5.68
2023-02-19T19:27:51.865Z,4.88
2023-02-19T19:30:20.565Z,3.85
2023-02-19T19:32:50.374Z,4.50
2023-02-19T19:35:21.006Z,7.05
2023-02-19T19:37:48.506Z,8.82
2023-02-19T19:40:18.172Z,3.72
2023-02-19T19:42:45.498Z,5.32
2023-02-19T19:45:14.359Z,5.75
2023-02-19T19:47:41.906Z,5.38
2023-02-19T19:50:10.838Z,6.50
2023-02-19T19:52:38.151Z,5.93
2023-02-19T19:55:07.027Z,6.82
2023-02-19T19:57:34.412Z,4.70
2023-02-19T20:00:02.290Z,5.78
2023-02-19T20:02:29.325Z,5.70
2023-02-19T20:04:56.710Z,7.32
2023-02-19T20:07:23.642Z,7.75
2023-02-19T20:09:51.137Z,4.30
2023-02-19T20:12:18.226Z,7.35
2023-02-19T20:14:46.853Z,4.72
2023-02-19T20:17:15.042Z,4.80
2023-02-19T20:19:42.996Z,5.43
2023-02-19T20:22:10.095Z,3.55
2023-02-19T20:24:37.395Z,7.55
2023-02-19T20:27:04.912Z,5.68
2023-02-19T20:29:36.190Z,6.63
2023-02-19T20:32:04.633Z,6.65
2023-02-19T20:34:32.385Z,6.10
2023-02-19T20:37:00.087Z,7.28
2023-02-19T20:39:29.517Z,6.38
2023-02-19T20:41:59.286Z,4.78
2023-02-19T20:44:29.993Z,4.40
2023-02-19T20:46:59.665Z,5.22
2023-02-19T20:49:30.817Z,5.75
2023-02-19T20:52:02.713Z,5.97
2023-02-19T20:54:33.460Z,4.53
2023-02-19T20:57:04.451Z,5.38
2023-02-19T20:59:35.765Z,5.82
2023-02-19T21:02:05.773Z,5.05
2023-02-19T21:04:38.879Z,4.18
2023-02-19T21:07:05.844Z,5.25
2023-02-19T21:09:33.412Z,5.13
2023-02-19T21:12:00.538Z,4.50
2023-02-19T21:14:27.884Z,6.15
2023-02-19T21:16:54.890Z,4.97
2023-02-19T21:19:22.624Z,6.32
2023-02-19T21:21:49.887Z,9.80
2023-02-19T21:24:17.661Z,7.22
2023-02-19T21:26:45.214Z,8.57
2023-02-19T21:29:20.534Z,7.07
2023-02-19T21:31:51.547Z,6.22
2023-02-19T21:34:28.580Z,6.10
2023-02-19T21:36:56.840Z,5.75
2023-02-19T21:39:26.210Z,10.20
2023-02-19T21:41:54.123Z,5.75
2023-02-19T21:44:21.731Z,6.30
2023-02-19T21:46:48.934Z,9.68
2023-02-19T21:49:16.862Z,12.18
2023-02-19T21:51:45.740Z,8.48
2023-02-19T21:54:17.504Z,6.72
2023-02-19T21:56:45.002Z,12.35
2023-02-19T21:59:12.629Z,9.63
2023-02-19T22:01:40.443Z,9.25
2023-02-19T22:04:10.919Z,12.63
2023-02-19T22:06:39.643Z,9.88
2023-02-19T22:09:09.084Z,24.23
2023-02-19T22:11:36.230Z,11.63
2023-02-19T22:14:04.012Z,10.05
2023-02-19T22:16:31.308Z,8.50
2023-02-19T22:19:00.532Z,12.60
2023-02-19T22:21:33.613Z,7.82
2023-02-19T22:24:03.073Z,7.13
2023-02-19T22:26:34.714Z,10.27
2023-02-19T22:29:07.084Z,7.63
2023-02-19T22:31:35.796Z,10.15
2023-02-19T22:34:04.589Z,14.18
2023-02-19T22:36:34.309Z,10.85
2023-02-19T22:39:01.753Z,13.23
2023-02-19T22:41:29.709Z,15.15
2023-02-19T22:43:59.317Z,11.43
2023-02-19T22:46:31.293Z,10.98
2023-02-19T22:49:04.035Z,17.50
2023-02-19T22:51:32.660Z,11.43
2023-02-19T22:54:01.580Z,14.05
2023-02-19T22:56:29.306Z,20.80
2023-02-19T22:58:58.061Z,13.85
2023-02-19T23:01:26.617Z,12.35
2023-02-19T23:04:01.203Z,11.80
2023-02-19T23:06:32.103Z,14.15
2023-02-19T23:09:05.629Z,12.15
2023-02-19T23:11:36.582Z,11.55
2023-02-19T23:14:03.841Z,12.65
2023-02-19T23:16:35.687Z,12.05
2023-02-19T23:19:06.129Z,13.75
2023-02-19T23:21:33.854Z,15.38
2023-02-19T23:24:01.174Z,11.80
2023-02-19T23:26:28.164Z,15.40
2023-02-19T23:28:56.291Z,17.85
2023-02-19T23:31:23.614Z,18.13
2023-02-19T23:33:50.965Z,12.57
2023-02-19T23:36:18.062Z,16.30
2023-02-19T23:38:46.945Z,13.57
2023-02-19T23:41:17.241Z,20.17
2023-02-19T23:43:45.290Z,13.98
2023-02-19T23:46:18.496Z,13.45
2023-02-19T23:48:46.403Z,15.20
2023-02-19T23:51:14.153Z,11.48
2023-02-19T23:53:41.806Z,11.02
2023-02-19T23:56:10.462Z,10.98
2023-02-19T23:58:37.784Z,14.27
